Time;durP1;ratioP1;P1;durP2;ratioP2;P2;SDS_P1;SDS_P2;PMS_P1;PMS_P2;Temp;Humidity;BMP_temperature;BMP_pressure;BME280_temperature;BME280_humidity;BME280_pressure;Samples;Min_cycle;Max_cycle;Signal;HPM_P1;HPM_P2
2023/03/02 00:02:13;;;;;;;30.50;19.55;;;2.70;93.90;;;;;;6216823;28;20046;-79
2023/03/02 00:05:14;;;;;;;36.10;22.17;;;2.60;94.00;;;;;;6216837;28;20057;-79
2023/03/02 00:08:17;;;;;;;33.25;19.75;;;2.60;94.00;;;;;;6217386;28;20046;-78
2023/03/02 00:11:20;;;;;;;31.95;18.17;;;2.60;94.10;;;;;;6217202;28;20054;-79
2023/03/02 00:14:22;;;;;;;35.35;20.83;;;2.60;94.30;;;;;;6220262;28;20046;-79
2023/03/02 00:17:26;;;;;;;39.53;22.88;;;2.60;94.30;;;;;;6222621;28;20054;-79
2023/03/02 00:20:28;;;;;;;38.20;21.80;;;2.60;94.40;;;;;;6219790;28;20046;-79
2023/03/02 00:23:30;;;;;;;30.10;19.80;;;2.50;94.40;;;;;;6218443;28;20049;-78
2023/03/02 00:26:34;;;;;;;39.15;22.25;;;2.50;94.50;;;;;;6217941;28;20046;-79
2023/03/02 00:29:36;;;;;;;35.10;21.40;;;2.50;94.60;;;;;;6218901;28;20107;-78
2023/03/02 00:32:37;;;;;;;29.33;20.13;;;2.40;94.60;;;;;;6201016;28;20046;-78
2023/03/02 00:35:39;;;;;;;38.97;22.52;;;2.40;94.70;;;;;;6198195;28;20052;-79
2023/03/02 00:38:41;;;;;;;35.60;19.95;;;2.40;94.80;;;;;;6201486;28;20505;-77
2023/03/02 00:41:44;;;;;;;36.38;22.95;;;2.40;94.90;;;;;;6202313;28;20053;-78
2023/03/02 00:44:46;;;;;;;32.78;20.80;;;2.40;94.90;;;;;;6201743;28;20042;-78
2023/03/02 00:47:48;;;;;;;39.42;20.20;;;2.40;95.00;;;;;;6202317;28;20057;-78
2023/03/02 00:50:49;;;;;;;39.10;24.13;;;2.30;95.10;;;;;;6204049;28;20062;-77
2023/03/02 00:53:51;;;;;;;34.00;19.35;;;2.30;95.10;;;;;;6228710;28;20046;-78
2023/03/02 00:56:54;;;;;;;36.97;22.48;;;2.30;95.30;;;;;;6229759;28;20515;-78
2023/03/02 00:59:56;;;;;;;37.22;21.38;;;2.30;95.40;;;;;;6227516;28;20049;-78
2023/03/02 01:02:58;;;;;;;36.60;21.00;;;2.30;95.50;;;;;;6228161;28;20128;-78
2023/03/02 01:05:59;;;;;;;37.25;22.33;;;2.30;95.50;;;;;;6228608;28;20057;-78
2023/03/02 01:09:01;;;;;;;33.95;21.85;;;2.20;95.50;;;;;;6229708;28;20492;-79
2023/03/02 01:12:08;;;;;;;31.65;21.85;;;2.20;95.60;;;;;;6228928;28;20050;-78
2023/03/02 01:15:10;;;;;;;35.70;20.88;;;2.10;95.60;;;;;;6245878;28;20064;-79
2023/03/02 01:18:13;;;;;;;36.20;21.30;;;2.10;95.80;;;;;;6250328;28;20053;-79
2023/03/02 01:21:15;;;;;;;35.75;20.35;;;2.10;95.90;;;;;;6248576;28;20050;-79
2023/03/02 01:24:17;;;;;;;31.33;21.42;;;2.10;95.90;;;;;;6248010;28;20041;-79
2023/03/02 01:27:21;;;;;;;40.95;22.55;;;2.10;96.00;;;;;;6250075;28;20048;-78
2023/03/02 01:30:22;;;;;;;41.90;23.05;;;2.00;96.10;;;;;;6237412;28;20053;-78
2023/03/02 01:33:24;;;;;;;39.10;21.73;;;2.00;96.20;;;;;;6231231;28;20046;-78
2023/03/02 01:36:26;;;;;;;36.65;22.20;;;2.00;96.30;;;;;;6232237;28;20042;-78
2023/03/02 01:39:27;;;;;;;36.50;21.23;;;2.00;96.50;;;;;;6232956;28;20049;-79
2023/03/02 01:43:16;;;;;;;41.80;21.27;;;1.90;96.40;;;;;;6246887;28;20029;-78
2023/03/02 01:46:21;;;;;;;30.30;19.85;;;1.90;96.50;;;;;;6227863;28;20046;-79
2023/03/02 01:49:23;;;;;;;32.85;21.15;;;1.90;96.50;;;;;;6221635;28;20050;-78
2023/03/02 01:52:26;;;;;;;42.28;21.23;;;1.90;96.70;;;;;;6221431;28;20058;-79
2023/03/02 01:55:32;;;;;;;39.05;22.98;;;1.90;96.70;;;;;;6220707;28;20046;-79
2023/03/02 01:58:37;;;;;;;37.67;22.08;;;1.80;96.70;;;;;;6232944;28;20048;-78
2023/03/02 02:01:42;;;;;;;32.10;19.88;;;1.80;96.90;;;;;;6244022;28;20072;-79
2023/03/02 02:04:47;;;;;;;39.70;20.98;;;1.80;96.90;;;;;;6243224;28;20277;-79
2023/03/02 02:07:49;;;;;;;37.45;21.17;;;1.80;96.90;;;;;;6243119;28;20042;-79
2023/03/02 02:10:52;;;;;;;34.35;20.85;;;1.70;97.00;;;;;;6243208;28;20045;-79
2023/03/02 02:13:57;;;;;;;37.30;22.08;;;1.70;97.00;;;;;;6243318;28;20552;-79
2023/03/02 02:17:00;;;;;;;34.17;21.55;;;1.60;97.10;;;;;;6244467;28;20045;-78
2023/03/02 02:20:18;;;;;;;38.65;22.02;;;1.60;97.10;;;;;;6237540;28;20045;-81
2023/03/02 02:23:28;;;;;;;38.60;24.83;;;1.60;97.30;;;;;;6226236;28;20073;-81
2023/03/02 02:26:34;;;;;;;40.45;24.25;;;1.60;97.50;;;;;;6225761;28;20045;-80
2023/03/02 02:29:38;;;;;;;42.42;23.55;;;1.50;97.40;;;;;;6225008;28;20049;-80
2023/03/02 02:32:43;;;;;;;40.42;23.20;;;1.50;97.50;;;;;;6225298;28;20053;-80
2023/03/02 02:35:46;;;;;;;42.13;23.00;;;1.50;97.70;;;;;;6225141;28;20050;-80
2023/03/02 02:38:52;;;;;;;39.20;22.63;;;1.50;97.70;;;;;;6224588;28;20526;-80
2023/03/02 02:41:58;;;;;;;36.85;22.90;;;1.50;97.70;;;;;;6224662;28;20049;-79
2023/03/02 02:45:04;;;;;;;40.87;26.53;;;1.50;97.80;;;;;;6225226;28;20042;-80
2023/03/02 02:48:08;;;;;;;42.22;23.88;;;1.50;97.80;;;;;;6224979;28;20054;-80
2023/03/02 02:51:13;;;;;;;38.88;22.60;;;1.50;97.90;;;;;;6227026;28;20045;-80
2023/03/02 02:54:18;;;;;;;41.08;23.80;;;1.50;98.00;;;;;;6225177;28;20448;-80
2023/03/02 02:57:24;;;;;;;38.75;20.10;;;1.50;98.00;;;;;;6225616;28;20065;-80
2023/03/02 03:00:26;;;;;;;52.78;25.45;;;1.50;98.40;;;;;;6225179;28;20046;-80
2023/03/02 03:03:30;;;;;;;38.03;23.52;;;1.50;98.20;;;;;;6224296;28;20042;-81
2023/03/02 03:06:37;;;;;;;30.60;19.42;;;1.50;98.30;;;;;;6237637;28;20045;-80
2023/03/02 03:09:38;;;;;;;30.30;18.23;;;1.50;98.40;;;;;;6224201;28;20405;-80
2023/03/02 03:12:43;;;;;;;39.53;24.93;;;1.50;98.40;;;;;;6224298;28;20050;-80
2023/03/02 03:15:44;;;;;;;40.70;24.48;;;1.50;98.40;;;;;;6223414;28;20049;-80
2023/03/02 03:18:47;;;;;;;42.47;26.00;;;1.50;98.40;;;;;;6224794;28;20049;-81
2023/03/02 03:21:52;;;;;;;40.17;24.40;;;1.40;98.60;;;;;;6233877;28;20046;-80
2023/03/02 03:24:53;;;;;;;42.30;24.02;;;1.40;98.60;;;;;;6225541;28;20507;-80
2023/03/02 03:27:56;;;;;;;36.55;20.58;;;1.40;98.70;;;;;;6224137;28;20053;-79
2023/03/02 03:30:58;;;;;;;45.30;25.55;;;1.40;98.80;;;;;;6223417;28;20056;-80
2023/03/02 03:34:00;;;;;;;39.85;24.30;;;1.50;98.80;;;;;;6223837;28;20046;-79
2023/03/02 03:37:02;;;;;;;41.97;24.15;;;1.40;98.70;;;;;;6223909;28;20062;-80
2023/03/02 03:40:05;;;;;;;38.95;22.90;;;1.40;98.90;;;;;;6223110;28;20057;-80
2023/03/02 03:43:10;;;;;;;40.28;23.98;;;1.40;98.90;;;;;;6222973;28;20058;-79
2023/03/02 03:46:12;;;;;;;41.55;25.45;;;1.40;99.10;;;;;;6223378;28;20432;-79
2023/03/02 03:49:14;;;;;;;42.85;24.02;;;1.40;99.20;;;;;;6223306;28;20061;-80
2023/03/02 03:52:16;;;;;;;44.45;24.88;;;1.40;99.20;;;;;;6222990;28;20163;-80
2023/03/02 03:55:18;;;;;;;42.10;23.83;;;1.40;99.20;;;;;;6222925;28;20103;-80
2023/03/02 03:58:21;;;;;;;40.00;24.43;;;1.40;99.20;;;;;;6222445;28;20638;-81
2023/03/02 04:01:28;;;;;;;40.57;25.00;;;1.30;99.10;;;;;;6223176;28;20420;-80
2023/03/02 04:04:32;;;;;;;49.53;24.40;;;1.30;99.40;;;;;;6222801;28;20049;-80
2023/03/02 04:07:35;;;;;;;47.92;24.00;;;1.20;99.20;;;;;;6222913;28;20054;-80
2023/03/02 04:10:37;;;;;;;45.20;26.00;;;1.20;99.20;;;;;;6222204;28;20083;-80
2023/03/02 04:13:40;;;;;;;44.60;26.03;;;1.10;99.30;;;;;;6222806;28;20050;-80
2023/03/02 04:16:42;;;;;;;41.67;22.80;;;1.10;99.20;;;;;;6222990;28;20050;-79
2023/03/02 04:19:44;;;;;;;42.57;26.57;;;1.00;99.20;;;;;;6222420;28;20049;-80
2023/03/02 04:22:48;;;;;;;53.42;25.95;;;0.90;99.30;;;;;;6227847;28;20058;-80
2023/03/02 04:25:50;;;;;;;43.33;23.83;;;0.90;99.40;;;;;;6230108;28;20054;-80
2023/03/02 04:28:53;;;;;;;51.77;25.90;;;0.80;99.40;;;;;;6228071;28;20050;-80
2023/03/02 04:31:55;;;;;;;44.10;25.80;;;0.70;99.40;;;;;;6228090;28;20049;-80
2023/03/02 04:34:56;;;;;;;44.83;25.17;;;0.60;99.50;;;;;;6228008;28;20050;-80
2023/03/02 04:37:58;;;;;;;44.40;25.23;;;0.60;99.60;;;;;;6227595;28;20054;-80
2023/03/02 04:41:00;;;;;;;43.10;25.17;;;0.50;99.60;;;;;;6228034;28;20064;-80
2023/03/02 04:44:03;;;;;;;46.37;26.40;;;0.40;99.60;;;;;;6227308;28;20134;-79
2023/03/02 04:47:05;;;;;;;47.30;26.27;;;0.40;99.70;;;;;;6227332;28;20037;-80
2023/03/02 04:50:08;;;;;;;41.67;23.27;;;0.30;99.80;;;;;;6227160;28;20065;-80
2023/03/02 04:53:10;;;;;;;46.90;22.87;;;0.30;99.80;;;;;;6226496;28;20421;-78
2023/03/02 04:56:12;;;;;;;40.27;25.10;;;0.20;99.80;;;;;;6226168;28;20417;-78
2023/03/02 04:59:16;;;;;;;42.27;26.37;;;0.20;99.90;;;;;;6226669;28;20050;-80
2023/03/02 05:02:17;;;;;;;45.80;24.10;;;0.10;99.90;;;;;;6226359;28;20053;-78
2023/03/02 05:05:21;;;;;;;44.93;22.93;;;0.00;99.90;;;;;;6227211;28;20053;-79
2023/03/02 05:08:24;;;;;;;45.57;25.47;;;0.00;99.90;;;;;;6251453;28;20050;-79
2023/03/02 05:11:26;;;;;;;52.83;27.47;;;-0.10;99.90;;;;;;6242738;28;20054;-80
2023/03/02 05:14:30;;;;;;;43.37;24.37;;;-0.10;99.90;;;;;;6226449;28;20049;-80
2023/03/02 05:17:31;;;;;;;40.03;23.77;;;-0.20;99.90;;;;;;6227306;28;20064;-79
2023/03/02 05:20:33;;;;;;;53.13;26.57;;;-0.20;99.90;;;;;;6227071;28;20050;-79
2023/03/02 05:23:35;;;;;;;44.47;23.97;;;-0.20;99.90;;;;;;6226111;28;20500;-78
2023/03/02 05:26:37;;;;;;;46.17;25.67;;;-0.20;99.90;;;;;;6237805;28;20042;-79
2023/03/02 05:29:40;;;;;;;44.40;25.13;;;-0.20;99.90;;;;;;6226341;28;20046;-79
2023/03/02 05:32:42;;;;;;;40.37;23.83;;;-0.30;99.90;;;;;;6226395;28;20049;-79
2023/03/02 05:35:44;;;;;;;45.37;27.47;;;-0.30;99.90;;;;;;6226388;28;20053;-79
2023/03/02 05:38:46;;;;;;;42.57;26.77;;;-0.30;99.90;;;;;;6226489;28;20050;-81
2023/03/02 05:41:47;;;;;;;53.53;25.20;;;-0.30;99.90;;;;;;6225306;28;20069;-80
2023/03/02 05:44:50;;;;;;;49.13;25.53;;;-0.30;99.90;;;;;;6226302;28;20046;-80
2023/03/02 05:47:52;;;;;;;44.73;24.57;;;-0.30;99.90;;;;;;6225074;28;20046;-80
2023/03/02 05:50:54;;;;;;;49.87;27.43;;;-0.30;99.90;;;;;;6225788;28;20056;-81
2023/03/02 05:53:55;;;;;;;43.57;24.17;;;-0.30;99.90;;;;;;6225605;28;20061;-81
2023/03/02 05:56:57;;;;;;;38.23;23.23;;;-0.30;99.90;;;;;;6225948;28;20061;-81
2023/03/02 06:00:00;;;;;;;52.70;24.83;;;-0.40;99.90;;;;;;6225303;28;20049;-80
2023/03/02 06:03:02;;;;;;;45.80;23.63;;;-0.30;99.90;;;;;;6225101;28;20050;-80
2023/03/02 06:06:04;;;;;;;39.60;26.43;;;-0.30;99.90;;;;;;6225807;28;20054;-80
2023/03/02 06:09:05;;;;;;;48.67;24.97;;;-0.40;99.90;;;;;;6226258;28;20057;-80
2023/03/02 06:12:08;;;;;;;47.20;25.97;;;-0.30;99.90;;;;;;6225304;28;20420;-80
2023/03/02 06:15:11;;;;;;;47.93;25.90;;;-0.30;99.90;;;;;;6225505;28;20045;-80
2023/03/02 06:18:13;;;;;;;46.97;25.40;;;-0.30;99.90;;;;;;6225075;28;20057;-81
2023/03/02 06:21:15;;;;;;;45.13;24.70;;;-0.30;99.90;;;;;;6225699;28;20061;-80
2023/03/02 06:24:17;;;;;;;43.03;24.27;;;-0.30;99.90;;;;;;6224929;28;20046;-81
2023/03/02 06:27:18;;;;;;;40.77;25.37;;;-0.30;99.90;;;;;;6235621;28;20042;-81
2023/03/02 06:30:24;;;;;;;39.13;21.07;;;-0.20;99.90;;;;;;6226507;28;20049;-80
2023/03/02 06:33:26;;;;;;;45.93;25.70;;;-0.20;99.90;;;;;;6225602;28;20419;-79
2023/03/02 06:36:28;;;;;;;34.60;23.47;;;-0.20;99.90;;;;;;6225593;28;20045;-80
2023/03/02 06:39:29;;;;;;;42.43;25.53;;;-0.10;99.90;;;;;;6224498;28;20046;-79
2023/03/02 06:42:31;;;;;;;42.23;22.07;;;-0.10;99.90;;;;;;6224311;28;20049;-80
2023/03/02 06:45:34;;;;;;;38.57;23.30;;;0.00;99.90;;;;;;6224767;28;20069;-82
2023/03/02 06:48:36;;;;;;;41.77;25.60;;;0.00;99.90;;;;;;6224838;28;20196;-81
2023/03/02 06:51:38;;;;;;;40.63;25.20;;;0.10;99.90;;;;;;6223663;28;20551;-81
2023/03/02 06:54:40;;;;;;;43.07;25.43;;;0.20;99.90;;;;;;6224624;28;20057;-81
2023/03/02 06:57:42;;;;;;;48.43;26.83;;;0.30;99.90;;;;;;6224574;28;20130;-80
2023/03/02 07:00:45;;;;;;;39.27;24.53;;;0.40;99.90;;;;;;6226018;28;20077;-81
2023/03/02 07:03:46;;;;;;;40.73;23.33;;;0.50;99.90;;;;;;6226833;28;20053;-81
2023/03/02 07:06:48;;;;;;;45.83;26.53;;;0.60;99.90;;;;;;6225790;28;20049;-81
2023/03/02 07:09:50;;;;;;;42.63;25.40;;;0.80;99.90;;;;;;6224935;28;20049;-80
2023/03/02 07:12:52;;;;;;;40.70;24.03;;;1.00;99.90;;;;;;6228635;28;20057;-80
2023/03/02 07:15:55;;;;;;;44.40;24.83;;;1.20;99.90;;;;;;6223826;28;20080;-80
2023/03/02 07:18:57;;;;;;;41.88;24.73;;;1.30;99.90;;;;;;6191874;28;20050;-81
2023/03/02 07:21:58;;;;;;;40.92;23.33;;;1.50;99.90;;;;;;6238115;28;20050;-80
2023/03/02 07:25:00;;;;;;;38.50;23.70;;;1.70;99.90;;;;;;6225198;28;20050;-80
2023/03/02 07:28:02;;;;;;;38.55;25.00;;;1.80;99.90;;;;;;6226976;28;20444;-80
2023/03/02 07:31:05;;;;;;;41.50;26.10;;;2.00;99.90;;;;;;6232950;28;20046;-80
2023/03/02 07:34:07;;;;;;;37.47;23.20;;;2.10;99.90;;;;;;6224680;28;20073;-80
2023/03/02 07:37:09;;;;;;;42.35;23.33;;;2.20;99.90;;;;;;6224637;28;20527;-79
2023/03/02 07:40:12;;;;;;;41.20;25.15;;;2.30;99.90;;;;;;6223446;28;20527;-80
2023/03/02 07:43:13;;;;;;;39.90;24.00;;;2.50;99.90;;;;;;6223799;28;20061;-81
2023/03/02 07:46:17;;;;;;;42.60;25.95;;;2.60;99.90;;;;;;6224800;28;20050;-80
2023/03/02 07:49:18;;;;;;;37.03;23.90;;;2.70;99.90;;;;;;6224238;28;20054;-81
2023/03/02 07:52:20;;;;;;;33.50;22.30;;;2.80;99.90;;;;;;6223591;28;20054;-80
2023/03/02 07:55:22;;;;;;;39.05;24.92;;;3.00;99.90;;;;;;6223842;28;20041;-81
2023/03/02 07:58:24;;;;;;;42.13;24.45;;;3.10;99.90;;;;;;6223765;28;20137;-81
2023/03/02 08:01:27;;;;;;;45.95;27.45;;;3.20;99.90;;;;;;6222894;28;20046;-81
2023/03/02 08:04:29;;;;;;;36.92;25.58;;;3.30;99.90;;;;;;6227707;28;20057;-80
2023/03/02 08:07:30;;;;;;;46.45;26.20;;;3.40;99.90;;;;;;6228157;28;20457;-80
2023/03/02 08:10:33;;;;;;;41.13;20.30;;;3.50;99.90;;;;;;6227677;28;20504;-82
2023/03/02 08:13:35;;;;;;;38.28;21.77;;;3.60;99.90;;;;;;6228067;28;20046;-81
2023/03/02 08:16:39;;;;;;;36.65;22.77;;;3.80;99.90;;;;;;6227556;28;20057;-81
2023/03/02 08:19:41;;;;;;;37.33;23.38;;;3.90;99.90;;;;;;6230039;28;20050;-81
2023/03/02 08:22:42;;;;;;;35.00;22.55;;;4.00;99.90;;;;;;6229968;28;20049;-81
2023/03/02 08:25:44;;;;;;;35.85;23.40;;;4.10;99.90;;;;;;6229731;28;20050;-80
2023/03/02 08:28:46;;;;;;;44.38;23.90;;;4.20;99.90;;;;;;6230326;28;20468;-80
2023/03/02 08:31:49;;;;;;;46.35;26.67;;;4.30;99.90;;;;;;6238522;28;20052;-80
2023/03/02 08:34:51;;;;;;;37.20;21.10;;;4.40;99.90;;;;;;6236750;28;20053;-80
2023/03/02 08:37:53;;;;;;;34.63;23.20;;;4.50;99.90;;;;;;6226675;28;20551;-80
2023/03/02 08:40:55;;;;;;;39.78;24.02;;;4.50;99.90;;;;;;6226705;28;20049;-80
2023/03/02 08:43:57;;;;;;;39.05;24.83;;;4.60;99.90;;;;;;6225873;28;20057;-79
2023/03/02 08:47:00;;;;;;;36.95;22.58;;;4.70;99.90;;;;;;6225666;28;20519;-80
2023/03/02 08:50:02;;;;;;;39.45;23.42;;;4.80;99.80;;;;;;6225691;28;20050;-80
2023/03/02 08:53:04;;;;;;;35.08;23.48;;;4.90;99.50;;;;;;6226091;28;20060;-80
2023/03/02 08:56:14;;;;;;;38.33;21.52;;;4.90;99.20;;;;;;6225873;28;20069;-79
2023/03/02 08:59:17;;;;;;;33.40;21.90;;;5.00;99.00;;;;;;6225873;28;20069;-80
2023/03/02 09:02:20;;;;;;;40.38;23.98;;;5.20;98.80;;;;;;6225484;28;20464;-80
2023/03/02 09:05:21;;;;;;;33.63;21.17;;;5.30;98.70;;;;;;6226122;28;20321;-80
2023/03/02 09:08:23;;;;;;;36.40;21.67;;;5.50;98.60;;;;;;6225291;28;20045;-80
2023/03/02 09:11:25;;;;;;;33.05;21.58;;;5.80;98.60;;;;;;6226183;28;20053;-79
2023/03/02 09:14:27;;;;;;;36.63;21.85;;;6.00;98.30;;;;;;6226803;28;20042;-79
2023/03/02 09:17:30;;;;;;;33.95;21.10;;;6.20;98.00;;;;;;6231065;28;20045;-79
2023/03/02 09:20:32;;;;;;;34.90;22.70;;;6.40;97.80;;;;;;6230087;28;20053;-79
2023/03/02 09:23:35;;;;;;;39.08;24.45;;;6.50;97.50;;;;;;6218795;28;20050;-79
2023/03/02 09:26:37;;;;;;;38.22;24.23;;;6.70;97.20;;;;;;6223278;28;20101;-79
2023/03/02 09:29:39;;;;;;;34.40;21.80;;;6.80;96.80;;;;;;6225471;28;20054;-83
2023/03/02 09:32:42;;;;;;;29.88;21.00;;;6.80;96.50;;;;;;6225926;28;20105;-78
2023/03/02 09:35:45;;;;;;;36.30;23.70;;;7.00;96.50;;;;;;6236260;28;20419;-79
2023/03/02 09:38:47;;;;;;;34.72;21.27;;;7.10;96.30;;;;;;6227018;28;20049;-80
2023/03/02 09:42:15;;;;;;;38.72;25.33;;;7.20;95.70;;;;;;6229206;28;20049;-80
2023/03/02 09:45:33;;;;;;;37.28;25.15;;;7.20;95.40;;;;;;6227343;28;20199;-82
2023/03/02 09:48:40;;;;;;;58.85;52.72;;;7.30;95.50;;;;;;6229160;28;20041;-78
2023/03/02 09:51:49;;;;;;;42.53;34.55;;;7.50;95.40;;;;;;6225393;28;20441;-79
2023/03/02 09:54:51;;;;;;;34.30;24.50;;;7.70;95.20;;;;;;6220895;28;20058;-80
2023/03/02 09:57:54;;;;;;;34.67;22.33;;;8.00;95.00;;;;;;6222946;28;20057;-79
2023/03/02 10:01:00;;;;;;;31.13;20.27;;;8.30;94.90;;;;;;6224458;28;20045;-77
2023/03/02 10:04:13;;;;;;;40.20;21.08;;;8.70;94.60;;;;;;6209203;28;20065;-79
2023/03/02 10:07:17;;;;;;;33.15;23.90;;;9.00;94.00;;;;;;6198242;28;20065;-80
2023/03/02 10:10:25;;;;;;;31.08;24.75;;;9.30;93.90;;;;;;6194776;28;20041;-77
2023/03/02 10:13:30;;;;;;;;;;;9.70;93.10;;;;;;6225503;28;20496;-79
2023/03/02 10:16:37;;;;;;;30.92;19.88;;;9.70;92.70;;;;;;6222292;28;19922;-78
2023/03/02 10:19:46;;;;;;;35.90;24.60;;;9.90;92.80;;;;;;6223234;28;20053;-78
2023/03/02 10:22:52;;;;;;;31.40;21.90;;;10.10;92.30;;;;;;6207766;28;20042;-77
2023/03/02 10:26:00;;;;;;;31.90;20.58;;;10.30;91.70;;;;;;6180938;28;20065;-78
2023/03/02 10:29:11;;;;;;;34.50;23.58;;;10.30;91.40;;;;;;6184958;28;20059;-78
2023/03/02 10:32:19;;;;;;;34.33;22.30;;;10.50;91.10;;;;;;6184115;28;20042;-79
2023/03/02 10:35:24;;;;;;;32.80;22.20;;;10.50;90.70;;;;;;6199109;28;20497;-79
2023/03/02 10:38:28;;;;;;;31.15;23.15;;;10.40;90.40;;;;;;6210892;28;20038;-80
2023/03/02 10:41:34;;;;;;;31.35;21.63;;;10.30;90.00;;;;;;6203410;28;20050;-80
2023/03/02 10:44:39;;;;;;;31.80;22.48;;;10.10;89.70;;;;;;6202836;28;20065;-80
2023/03/02 10:47:41;;;;;;;28.00;20.63;;;10.00;89.50;;;;;;6193085;28;20042;-78
2023/03/02 10:50:44;;;;;;;36.13;23.38;;;10.00;89.30;;;;;;6176520;28;20051;-78
2023/03/02 10:53:46;;;;;;;32.40;23.15;;;9.90;89.10;;;;;;6176575;28;20058;-79
2023/03/02 10:56:51;;;;;;;35.70;22.90;;;10.00;89.00;;;;;;6177035;28;20426;-79
2023/03/02 10:59:53;;;;;;;31.90;21.38;;;10.10;88.70;;;;;;6175505;28;20480;-78
2023/03/02 11:02:56;;;;;;;33.20;22.77;;;10.30;88.70;;;;;;6174642;28;20121;-78
2023/03/02 11:06:12;;;;;;;32.78;22.85;;;10.40;87.80;;;;;;6185027;28;20051;-77
2023/03/02 11:09:14;;;;;;;32.75;23.55;;;10.30;87.30;;;;;;6189269;28;20046;-78
2023/03/02 11:12:17;;;;;;;32.45;23.60;;;10.30;87.30;;;;;;6187234;28;20046;-78
2023/03/02 11:15:25;;;;;;;36.03;22.60;;;10.20;87.10;;;;;;6180018;28;20053;-78
2023/03/02 11:18:30;;;;;;;31.65;21.70;;;10.30;86.90;;;;;;6178907;28;20058;-78
2023/03/02 11:21:43;;;;;;;31.40;20.50;;;10.50;86.60;;;;;;6178794;28;20051;-80
2023/03/02 11:24:51;;;;;;;33.47;20.85;;;10.40;86.10;;;;;;6203250;28;20062;-80
2023/03/02 11:28:00;;;;;;;32.17;20.95;;;10.50;86.60;;;;;;6202275;28;20058;-80
2023/03/02 11:31:06;;;;;;;33.30;22.40;;;10.80;86.20;;;;;;6202616;28;20047;-80
2023/03/02 11:34:27;;;;;;;28.63;21.67;;;11.30;85.90;;;;;;6201802;28;20124;-79
2023/03/02 11:37:37;;;;;;;33.28;23.65;;;11.70;84.70;;;;;;6202205;28;20424;-79
2023/03/02 11:40:45;;;;;;;32.85;21.27;;;12.10;84.10;;;;;;6205797;28;20054;-78
2023/03/02 11:43:47;;;;;;;;;;;12.30;82.80;;;;;;6204551;28;20046;-80
2023/03/02 11:46:55;;;;;;;38.00;22.95;;;12.10;81.50;;;;;;6201527;28;20272;-79
2023/03/02 11:49:58;;;;;;;;;;;11.70;82.80;;;;;;6216092;28;20108;-78
2023/03/02 11:53:06;;;;;;;32.30;22.90;;;11.40;82.70;;;;;;6225308;28;19928;-80
2023/03/02 11:56:08;;;;;;;31.27;21.73;;;11.40;83.10;;;;;;6225703;28;20053;-79
2023/03/02 11:59:15;;;;;;;32.55;21.90;;;11.60;82.10;;;;;;6224822;28;20053;-79
2023/03/02 12:02:18;;;;;;;34.80;23.73;;;11.20;82.50;;;;;;6224719;28;20050;-79
2023/03/02 12:05:25;;;;;;;30.05;21.83;;;11.60;82.40;;;;;;6225566;28;20054;-79
2023/03/02 12:08:38;;;;;;;31.70;21.27;;;11.70;81.90;;;;;;6224946;28;20512;-80
2023/03/02 12:11:45;;;;;;;35.85;22.50;;;11.80;80.50;;;;;;6223962;28;20049;-79
2023/03/02 12:14:46;;;;;;;30.17;21.52;;;11.80;81.50;;;;;;6223201;28;20590;-79
2023/03/02 12:17:48;;;;;;;32.33;22.00;;;12.40;81.30;;;;;;6227409;28;20050;-80
2023/03/02 12:20:58;;;;;;;31.00;23.13;;;12.90;79.50;;;;;;6213858;28;20100;-80
2023/03/02 12:24:05;;;;;;;31.27;23.00;;;13.20;77.80;;;;;;6227846;28;20389;-80
2023/03/02 12:27:24;;;;;;;29.48;22.45;;;13.10;77.30;;;;;;6226140;28;20567;-80
2023/03/02 12:30:29;;;;;;;32.10;21.83;;;13.20;76.90;;;;;;6226098;28;20050;-81
2023/03/02 12:33:30;;;;;;;32.17;23.23;;;13.30;76.80;;;;;;6225807;28;20057;-80
2023/03/02 12:36:41;;;;;;;31.80;21.77;;;13.40;76.10;;;;;;6225091;28;20549;-80
2023/03/02 12:40:27;;;;;;;29.55;22.38;;;13.40;75.60;;;;;;6225522;28;20495;-80
2023/03/02 12:43:31;;;;;;;29.92;21.08;;;13.60;75.50;;;;;;6225764;28;20424;-78
2023/03/02 12:46:35;;;;;;;32.67;22.80;;;13.00;74.30;;;;;;6225295;28;20060;-79
2023/03/02 12:49:48;;;;;;;38.38;23.05;;;12.80;75.60;;;;;;6224842;28;20184;-79
2023/03/02 12:52:58;;;;;;;34.70;22.20;;;12.70;75.60;;;;;;6226106;28;20195;-78
2023/03/02 12:56:01;;;;;;;28.98;21.27;;;13.00;75.50;;;;;;6228738;28;20056;-80
2023/03/02 12:59:02;;;;;;;33.55;22.48;;;12.90;74.90;;;;;;6208222;28;20166;-80
2023/03/02 13:02:12;;;;;;;30.13;20.60;;;13.50;75.20;;;;;;6198518;28;20571;-80
2023/03/02 13:05:19;;;;;;;36.08;25.13;;;13.90;74.00;;;;;;6231427;28;20492;-80
2023/03/02 13:08:27;;;;;;;28.67;20.38;;;13.90;73.00;;;;;;6226597;28;20500;-80
2023/03/02 13:11:33;;;;;;;35.70;22.52;;;14.10;73.40;;;;;;6199268;28;20121;-80
2023/03/02 13:14:35;;;;;;;31.92;23.75;;;14.60;71.90;;;;;;6196197;28;20050;-79
2023/03/02 13:17:36;;;;;;;30.85;21.52;;;14.20;70.70;;;;;;6227036;28;20134;-81
2023/03/02 13:20:38;;;;;;;27.13;19.48;;;14.20;72.20;;;;;;6228773;28;20052;-79
2023/03/02 13:23:46;;;;;;;26.10;19.63;;;14.60;71.70;;;;;;6240951;28;20064;-80
2023/03/02 13:26:56;;;;;;;28.20;20.75;;;14.40;71.10;;;;;;6226713;28;20053;-79
2023/03/02 13:30:09;;;;;;;30.42;20.92;;;14.60;71.10;;;;;;6229362;28;20050;-80
2023/03/02 13:33:22;;;;;;;36.67;22.48;;;15.00;69.50;;;;;;6230570;28;20050;-80
2023/03/02 13:36:26;;;;;;;25.88;21.45;;;15.10;69.50;;;;;;6228199;28;20128;-79
2023/03/02 13:39:30;;;;;;;29.58;21.48;;;15.20;68.90;;;;;;6204729;28;20073;-80
2023/03/02 13:42:38;;;;;;;22.58;18.98;;;15.00;69.10;;;;;;6199470;28;20509;-80
2023/03/02 13:45:39;;;;;;;;;;;15.10;70.50;;;;;;6231349;28;20051;-80
2023/03/02 13:48:41;;;;;;;25.70;18.58;;;15.20;68.80;;;;;;6230446;28;20295;-80
2023/03/02 13:51:45;;;;;;;36.33;22.33;;;15.30;69.10;;;;;;6232962;28;20361;-79
2023/03/02 13:54:47;;;;;;;31.20;21.08;;;15.50;69.10;;;;;;6238573;28;20144;-80
2023/03/02 13:57:52;;;;;;;28.80;20.25;;;15.60;68.50;;;;;;6235115;28;20033;-80
2023/03/02 14:00:54;;;;;;;28.92;20.23;;;15.50;67.80;;;;;;6231860;28;20080;-80
2023/03/02 14:03:58;;;;;;;29.17;21.52;;;15.40;67.80;;;;;;6233585;28;20427;-80
2023/03/02 14:06:59;;;;;;;26.58;18.42;;;15.40;67.70;;;;;;6225642;28;20042;-80
2023/03/02 14:10:01;;;;;;;25.67;21.25;;;15.80;68.30;;;;;;6226944;28;20046;-79
2023/03/02 14:13:08;;;;;;;26.45;19.65;;;16.50;67.80;;;;;;6230135;28;20077;-80
2023/03/02 14:16:12;;;;;;;26.42;21.65;;;17.10;66.10;;;;;;6226888;28;20049;-80
2023/03/02 14:19:17;;;;;;;28.38;21.92;;;17.20;65.30;;;;;;6229511;28;20049;-80
2023/03/02 14:22:19;;;;;;;29.08;20.30;;;17.50;64.40;;;;;;6230886;28;20044;-80
2023/03/02 14:25:21;;;;;;;29.77;21.25;;;17.60;64.40;;;;;;6231704;28;20061;-80
2023/03/02 14:28:27;;;;;;;27.55;21.40;;;17.90;63.60;;;;;;6234301;28;20088;-79
2023/03/02 14:31:29;;;;;;;32.60;23.73;;;18.30;62.60;;;;;;6237146;28;20478;-79
2023/03/02 14:34:31;;;;;;;26.40;22.15;;;18.50;62.40;;;;;;6216159;28;20073;-79
2023/03/02 14:37:32;;;;;;;26.45;20.70;;;18.40;61.70;;;;;;6189460;28;20424;-79
2023/03/02 14:40:35;;;;;;;26.45;20.45;;;18.40;61.30;;;;;;6230867;28;20507;-79
2023/03/02 14:43:38;;;;;;;23.33;19.35;;;18.00;61.20;;;;;;6229275;28;20053;-80
2023/03/02 14:46:40;;;;;;;26.02;20.08;;;17.60;61.40;;;;;;6229567;28;20046;-79
2023/03/02 14:49:41;;;;;;;28.08;21.00;;;17.50;61.10;;;;;;6226578;28;20045;-79
2023/03/02 14:52:45;;;;;;;27.98;20.90;;;17.50;61.20;;;;;;6189685;28;20076;-78
2023/03/02 14:55:47;;;;;;;26.58;21.00;;;17.60;60.30;;;;;;6186127;28;20061;-80
2023/03/02 14:58:51;;;;;;;27.38;19.83;;;17.30;60.20;;;;;;6180000;28;20239;-79
2023/03/02 15:01:54;;;;;;;27.65;21.80;;;17.10;60.50;;;;;;6188291;28;20137;-80
2023/03/02 15:04:56;;;;;;;32.30;20.65;;;16.90;60.60;;;;;;6231238;28;20060;-79
2023/03/02 15:07:58;;;;;;;29.25;21.75;;;16.80;60.50;;;;;;6228233;28;20046;-78
2023/03/02 15:10:59;;;;;;;24.35;18.80;;;16.60;60.70;;;;;;6228906;28;20080;-80
2023/03/02 15:14:02;;;;;;;31.75;21.02;;;16.70;61.00;;;;;;6231764;28;22918;-80
2023/03/02 15:17:05;;;;;;;28.58;20.30;;;16.90;60.70;;;;;;6230389;28;20050;-79
2023/03/02 15:20:08;;;;;;;28.10;21.60;;;17.00;60.60;;;;;;6224424;28;20054;-79
2023/03/02 15:23:09;;;;;;;28.20;20.85;;;17.00;60.30;;;;;;6229553;28;20061;-81
2023/03/02 15:26:12;;;;;;;26.33;21.40;;;17.00;60.40;;;;;;6228796;28;20054;-81
2023/03/02 15:29:15;;;;;;;21.88;18.42;;;16.90;60.30;;;;;;6227887;28;20057;-80
2023/03/02 15:32:17;;;;;;;24.92;19.85;;;16.70;60.50;;;;;;6228741;28;20048;-80
2023/03/02 15:35:19;;;;;;;26.90;19.98;;;16.30;60.50;;;;;;6219164;28;20042;-80
2023/03/02 15:38:21;;;;;;;30.95;22.10;;;15.80;60.80;;;;;;6223199;28;20042;-79
2023/03/02 15:41:23;;;;;;;31.85;24.15;;;15.50;61.40;;;;;;6224065;28;20362;-79